Kezdőlap
METAR-TAF:

METAR-TAF

Repülőterek :

Vamdrup

Kolding, Dánia

földrajzi szélesség: 55-26N, földrajzi hosszúság: 009-20E, magasság: 44 m

Jelenlegi meteorológiai megfigyelések

A jelentés 18 perccel ezelõtt készült, 01:20 UTC
Nyugati szél 5 kt
Hőmérséklet 11°C
Páratartalom 94%
Légköri nyomás 1016 hPa

METAR: EKVD 250120Z AUTO 27005KT //// ///////// 11/10 Q1016

Idő: 03:38 (01:38 UTC)

Előrejelzés

A jelentés 13 órával és 47 perccel ezelõtt készült, 11:51 UTC
Az előrejelzés 24-én 12 óra UTC és 24-én 16 óra UTC között érvényes
Nyugat-északnyugati szél 14 kt
Látótávolság 10 km, vagy több
Szórványos felhőzet 3000 lábon
24-én 12 óra UTC és 24-én 16 óra UTC között ideiglenes
Nyugat-északnyugati szél 15 kt széllökések: 25 kt

TAF: EKVD 241151Z 2412/2416 30014KT 9999 SCT030 TEMPO 2412/2416 30015G25KT

Meteorológiai megfigyelések és előrejelzések több, mint 4000 repülőtéren (METAR és TAF jelentéseket).

A térképen piros és sárga pontok jelzik az elérhető meteorológiai állomásokat.

Mozgassa az egeret a pont fölött, hogy megjelenjen az állomás neve.

Azután kattintson az időjárási megfigyelések és előrejelzések megtekintéséhez.

A térkép megváltoztatása: kattintson a fekete keresztel jelölt zöld gombra ráközelítéshez, a vonallal jelölt zöld gombra távolításhoz, vagy a zöld nyilakra a szomszédos térképek eléréséhez.


METAR-TAF: